sensor_id;sensor_type;location;lat;lon;timestamp;P1;durP1;ratioP1;P2;durP2;ratioP2
60086;SDS011;45960;53.630;55.972;2022-09-17T00:00:21;10.02;;;7.22;;
60086;SDS011;45960;53.630;55.972;2022-09-17T00:01:23;8.95;;;7.28;;
60086;SDS011;45960;53.630;55.972;2022-09-17T00:02:25;8.82;;;7.35;;
60086;SDS011;45960;53.630;55.972;2022-09-17T00:03:27;10.43;;;6.95;;
60086;SDS011;45960;53.630;55.972;2022-09-17T00:04:28;13.90;;;7.50;;
60086;SDS011;45960;53.630;55.972;2022-09-17T00:05:29;12.50;;;7.28;;
60086;SDS011;45960;53.630;55.972;2022-09-17T00:06:32;13.43;;;7.88;;
60086;SDS011;45960;53.630;55.972;2022-09-17T00:07:34;9.40;;;6.57;;
60086;SDS011;45960;53.630;55.972;2022-09-17T00:08:37;11.55;;;7.57;;
60086;SDS011;45960;53.630;55.972;2022-09-17T00:09:40;14.50;;;6.97;;
60086;SDS011;45960;53.630;55.972;2022-09-17T00:10:42;13.48;;;7.15;;
60086;SDS011;45960;53.630;55.972;2022-09-17T00:11:44;11.73;;;8.25;;
60086;SDS011;45960;53.630;55.972;2022-09-17T00:12:45;8.02;;;6.90;;
60086;SDS011;45960;53.630;55.972;2022-09-17T00:13:47;8.70;;;7.28;;
60086;SDS011;45960;53.630;55.972;2022-09-17T00:14:50;8.63;;;7.05;;
60086;SDS011;45960;53.630;55.972;2022-09-17T00:15:51;16.65;;;7.72;;
60086;SDS011;45960;53.630;55.972;2022-09-17T00:16:52;13.13;;;7.72;;
60086;SDS011;45960;53.630;55.972;2022-09-17T00:17:54;11.48;;;7.53;;
60086;SDS011;45960;53.630;55.972;2022-09-17T00:18:58;10.90;;;7.40;;
60086;SDS011;45960;53.630;55.972;2022-09-17T00:20:00;12.50;;;7.50;;
60086;SDS011;45960;53.630;55.972;2022-09-17T00:21:02;13.82;;;6.97;;
60086;SDS011;45960;53.630;55.972;2022-09-17T00:22:03;8.02;;;7.22;;
60086;SDS011;45960;53.630;55.972;2022-09-17T00:23:04;8.98;;;7.03;;
60086;SDS011;45960;53.630;55.972;2022-09-17T00:24:06;11.13;;;6.63;;
60086;SDS011;45960;53.630;55.972;2022-09-17T00:25:07;11.90;;;7.05;;
60086;SDS011;45960;53.630;55.972;2022-09-17T00:26:08;9.38;;;6.30;;
60086;SDS011;45960;53.630;55.972;2022-09-17T00:27:09;8.77;;;7.28;;
60086;SDS011;45960;53.630;55.972;2022-09-17T00:28:11;10.07;;;6.97;;
60086;SDS011;45960;53.630;55.972;2022-09-17T00:29:13;14.13;;;7.25;;
60086;SDS011;45960;53.630;55.972;2022-09-17T00:30:14;11.98;;;7.40;;
60086;SDS011;45960;53.630;55.972;2022-09-17T00:31:16;8.82;;;6.38;;
60086;SDS011;45960;53.630;55.972;2022-09-17T00:32:17;13.57;;;7.10;;
60086;SDS011;45960;53.630;55.972;2022-09-17T00:33:18;9.65;;;6.97;;
60086;SDS011;45960;53.630;55.972;2022-09-17T00:34:19;8.93;;;6.60;;
60086;SDS011;45960;53.630;55.972;2022-09-17T00:35:20;8.23;;;7.15;;
60086;SDS011;45960;53.630;55.972;2022-09-17T00:36:21;8.18;;;6.88;;
60086;SDS011;45960;53.630;55.972;2022-09-17T00:37:23;12.40;;;7.22;;
60086;SDS011;45960;53.630;55.972;2022-09-17T00:38:24;10.73;;;7.22;;
60086;SDS011;45960;53.630;55.972;2022-09-17T00:39:25;11.68;;;6.80;;
60086;SDS011;45960;53.630;55.972;2022-09-17T00:40:26;13.18;;;6.95;;
60086;SDS011;45960;53.630;55.972;2022-09-17T00:41:28;15.82;;;7.25;;
60086;SDS011;45960;53.630;55.972;2022-09-17T00:42:31;11.18;;;6.80;;
60086;SDS011;45960;53.630;55.972;2022-09-17T00:43:36;7.22;;;5.85;;
60086;SDS011;45960;53.630;55.972;2022-09-17T00:45:50;8.20;;;6.50;;
60086;SDS011;45960;53.630;55.972;2022-09-17T00:46:53;9.75;;;6.03;;
60086;SDS011;45960;53.630;55.972;2022-09-17T00:47:57;15.30;;;7.22;;
60086;SDS011;45960;53.630;55.972;2022-09-17T00:49:05;6.88;;;6.18;;
60086;SDS011;45960;53.630;55.972;2022-09-17T00:51:42;8.73;;;6.18;;
60086;SDS011;45960;53.630;55.972;2022-09-17T00:52:50;8.40;;;6.38;;
60086;SDS011;45960;53.630;55.972;2022-09-17T00:53:55;7.65;;;6.68;;
60086;SDS011;45960;53.630;55.972;2022-09-17T00:55:02;8.00;;;6.00;;
60086;SDS011;45960;53.630;55.972;2022-09-17T00:56:09;9.05;;;6.30;;
60086;SDS011;45960;53.630;55.972;2022-09-17T00:57:19;8.43;;;5.90;;
60086;SDS011;45960;53.630;55.972;2022-09-17T00:58:20;8.20;;;6.03;;
60086;SDS011;45960;53.630;55.972;2022-09-17T00:59:23;11.18;;;6.28;;
60086;SDS011;45960;53.630;55.972;2022-09-17T01:00:25;8.13;;;5.97;;
60086;SDS011;45960;53.630;55.972;2022-09-17T01:01:27;7.20;;;5.82;;
60086;SDS011;45960;53.630;55.972;2022-09-17T01:02:29;7.15;;;5.78;;
60086;SDS011;45960;53.630;55.972;2022-09-17T01:03:30;11.63;;;6.65;;
60086;SDS011;45960;53.630;55.972;2022-09-17T01:04:32;8.45;;;6.22;;
60086;SDS011;45960;53.630;55.972;2022-09-17T01:05:52;8.15;;;5.43;;
60086;SDS011;45960;53.630;55.972;2022-09-17T01:07:04;13.02;;;6.57;;
60086;SDS011;45960;53.630;55.972;2022-09-17T01:09:49;8.88;;;6.10;;
60086;SDS011;45960;53.630;55.972;2022-09-17T01:10:54;8.95;;;6.07;;
60086;SDS011;45960;53.630;55.972;2022-09-17T01:18:02;6.85;;;6.15;;
60086;SDS011;45960;53.630;55.972;2022-09-17T01:24:30;8.43;;;6.20;;
60086;SDS011;45960;53.630;55.972;2022-09-17T01:28:41;8.07;;;5.60;;
60086;SDS011;45960;53.630;55.972;2022-09-17T01:31:29;6.47;;;5.80;;
60086;SDS011;45960;53.630;55.972;2022-09-17T01:32:51;7.68;;;5.97;;
60086;SDS011;45960;53.630;55.972;2022-09-17T01:37:08;17.33;;;6.93;;
60086;SDS011;45960;53.630;55.972;2022-09-17T01:38:26;11.43;;;6.28;;
60086;SDS011;45960;53.630;55.972;2022-09-17T01:40:40;10.27;;;7.32;;
60086;SDS011;45960;53.630;55.972;2022-09-17T01:42:04;10.43;;;6.43;;
60086;SDS011;45960;53.630;55.972;2022-09-17T01:45:41;9.55;;;7.30;;
60086;SDS011;45960;53.630;55.972;2022-09-17T01:46:50;8.35;;;6.90;;
60086;SDS011;45960;53.630;55.972;2022-09-17T01:48:06;10.65;;;7.53;;
60086;SDS011;45960;53.630;55.972;2022-09-17T01:49:11;9.40;;;7.32;;
60086;SDS011;45960;53.630;55.972;2022-09-17T01:50:17;7.80;;;7.00;;
60086;SDS011;45960;53.630;55.972;2022-09-17T01:51:24;12.65;;;7.32;;
60086;SDS011;45960;53.630;55.972;2022-09-17T01:52:28;9.90;;;7.32;;
60086;SDS011;45960;53.630;55.972;2022-09-17T01:54:59;10.65;;;7.88;;
60086;SDS011;45960;53.630;55.972;2022-09-17T01:56:05;12.10;;;7.28;;
60086;SDS011;45960;53.630;55.972;2022-09-17T01:58:24;8.63;;;7.72;;
60086;SDS011;45960;53.630;55.972;2022-09-17T01:59:34;10.10;;;8.32;;
60086;SDS011;45960;53.630;55.972;2022-09-17T02:00:41;10.93;;;8.30;;
60086;SDS011;45960;53.630;55.972;2022-09-17T02:01:49;10.48;;;7.50;;
60086;SDS011;45960;53.630;55.972;2022-09-17T02:04:16;11.38;;;7.68;;
60086;SDS011;45960;53.630;55.972;2022-09-17T02:05:20;14.27;;;7.35;;
60086;SDS011;45960;53.630;55.972;2022-09-17T02:06:28;10.82;;;7.80;;
60086;SDS011;45960;53.630;55.972;2022-09-17T02:07:35;13.23;;;7.55;;
60086;SDS011;45960;53.630;55.972;2022-09-17T02:09:57;11.00;;;8.07;;
60086;SDS011;45960;53.630;55.972;2022-09-17T02:11:09;9.27;;;7.45;;
60086;SDS011;45960;53.630;55.972;2022-09-17T02:12:15;12.13;;;7.22;;
60086;SDS011;45960;53.630;55.972;2022-09-17T02:13:22;8.25;;;6.70;;
60086;SDS011;45960;53.630;55.972;2022-09-17T02:14:26;8.55;;;6.85;;
60086;SDS011;45960;53.630;55.972;2022-09-17T02:15:35;10.95;;;7.82;;
60086;SDS011;45960;53.630;55.972;2022-09-17T02:16:41;12.65;;;6.57;;
60086;SDS011;45960;53.630;55.972;2022-09-17T02:17:49;13.70;;;6.95;;
60086;SDS011;45960;53.630;55.972;2022-09-17T02:20:12;9.73;;;6.57;;
60086;SDS011;45960;53.630;55.972;2022-09-17T02:21:15;16.52;;;7.18;;
60086;SDS011;45960;53.630;55.972;2022-09-17T02:26:37;9.60;;;6.28;;
60086;SDS011;45960;53.630;55.972;2022-09-17T02:28:01;9.30;;;5.90;;
60086;SDS011;45960;53.630;55.972;2022-09-17T02:29:18;11.43;;;6.00;;
60086;SDS011;45960;53.630;55.972;2022-09-17T02:30:28;14.30;;;6.10;;
60086;SDS011;45960;53.630;55.972;2022-09-17T02:31:29;7.95;;;5.50;;
60086;SDS011;45960;53.630;55.972;2022-09-17T02:32:30;13.60;;;6.20;;
60086;SDS011;45960;53.630;55.972;2022-09-17T02:33:33;9.50;;;5.55;;
60086;SDS011;45960;53.630;55.972;2022-09-17T02:34:36;10.48;;;6.60;;
60086;SDS011;45960;53.630;55.972;2022-09-17T02:35:38;19.63;;;6.53;;
60086;SDS011;45960;53.630;55.972;2022-09-17T02:36:39;7.25;;;6.07;;
60086;SDS011;45960;53.630;55.972;2022-09-17T02:37:41;11.32;;;6.13;;
60086;SDS011;45960;53.630;55.972;2022-09-17T02:38:44;7.22;;;5.90;;
60086;SDS011;45960;53.630;55.972;2022-09-17T02:39:45;6.78;;;5.63;;
60086;SDS011;45960;53.630;55.972;2022-09-17T02:40:48;10.90;;;5.60;;
60086;SDS011;45960;53.630;55.972;2022-09-17T02:43:26;9.93;;;5.60;;
60086;SDS011;45960;53.630;55.972;2022-09-17T02:51:22;6.63;;;5.07;;
60086;SDS011;45960;53.630;55.972;2022-09-17T02:54:33;7.18;;;5.65;;
60086;SDS011;45960;53.630;55.972;2022-09-17T02:56:18;7.03;;;5.18;;
60086;SDS011;45960;53.630;55.972;2022-09-17T02:58:56;6.80;;;5.50;;
60086;SDS011;45960;53.630;55.972;2022-09-17T03:01:20;9.38;;;5.50;;
60086;SDS011;45960;53.630;55.972;2022-09-17T03:02:54;8.30;;;4.65;;
60086;SDS011;45960;53.630;55.972;2022-09-17T03:03:51;6.28;;;5.10;;
60086;SDS011;45960;53.630;55.972;2022-09-17T03:04:55;6.53;;;4.97;;
60086;SDS011;45960;53.630;55.972;2022-09-17T03:05:57;7.38;;;4.95;;
60086;SDS011;45960;53.630;55.972;2022-09-17T03:07:03;5.82;;;4.97;;
60086;SDS011;45960;53.630;55.972;2022-09-17T03:08:11;8.05;;;5.10;;
60086;SDS011;45960;53.630;55.972;2022-09-17T03:09:14;7.70;;;5.20;;
60086;SDS011;45960;53.630;55.972;2022-09-17T03:10:15;8.27;;;5.60;;
60086;SDS011;45960;53.630;55.972;2022-09-17T03:11:17;7.35;;;5.43;;
60086;SDS011;45960;53.630;55.972;2022-09-17T03:12:18;6.97;;;5.63;;
60086;SDS011;45960;53.630;55.972;2022-09-17T03:13:21;7.25;;;5.82;;
60086;SDS011;45960;53.630;55.972;2022-09-17T03:14:22;9.55;;;5.65;;
60086;SDS011;45960;53.630;55.972;2022-09-17T03:15:23;6.90;;;5.88;;
60086;SDS011;45960;53.630;55.972;2022-09-17T03:16:24;6.25;;;5.65;;
60086;SDS011;45960;53.630;55.972;2022-09-17T03:17:25;6.97;;;5.60;;
60086;SDS011;45960;53.630;55.972;2022-09-17T03:18:26;5.95;;;5.35;;
60086;SDS011;45960;53.630;55.972;2022-09-17T03:19:27;6.22;;;5.63;;
60086;SDS011;45960;53.630;55.972;2022-09-17T03:20:28;8.30;;;5.82;;
60086;SDS011;45960;53.630;55.972;2022-09-17T03:21:29;8.52;;;5.50;;
60086;SDS011;45960;53.630;55.972;2022-09-17T03:22:30;6.68;;;5.97;;
60086;SDS011;45960;53.630;55.972;2022-09-17T03:23:32;11.85;;;6.68;;
60086;SDS011;45960;53.630;55.972;2022-09-17T03:24:33;6.95;;;6.10;;
60086;SDS011;45960;53.630;55.972;2022-09-17T03:25:34;7.85;;;5.85;;
60086;SDS011;45960;53.630;55.972;2022-09-17T03:26:35;8.38;;;6.05;;
60086;SDS011;45960;53.630;55.972;2022-09-17T03:27:36;8.30;;;5.57;;
60086;SDS011;45960;53.630;55.972;2022-09-17T03:28:37;6.63;;;5.82;;
60086;SDS011;45960;53.630;55.972;2022-09-17T03:29:38;9.13;;;6.10;;
60086;SDS011;45960;53.630;55.972;2022-09-17T03:30:39;8.15;;;5.80;;
60086;SDS011;45960;53.630;55.972;2022-09-17T03:31:41;9.65;;;6.03;;
60086;SDS011;45960;53.630;55.972;2022-09-17T03:32:42;10.70;;;6.30;;
60086;SDS011;45960;53.630;55.972;2022-09-17T03:33:43;8.07;;;6.28;;
60086;SDS011;45960;53.630;55.972;2022-09-17T03:34:44;8.70;;;6.35;;
60086;SDS011;45960;53.630;55.972;2022-09-17T03:35:46;7.72;;;6.00;;
60086;SDS011;45960;53.630;55.972;2022-09-17T03:36:48;9.32;;;5.85;;
60086;SDS011;45960;53.630;55.972;2022-09-17T03:37:49;7.93;;;5.68;;
60086;SDS011;45960;53.630;55.972;2022-09-17T03:38:54;6.20;;;4.97;;
60086;SDS011;45960;53.630;55.972;2022-09-17T03:39:56;7.28;;;5.93;;
60086;SDS011;45960;53.630;55.972;2022-09-17T03:41:06;6.15;;;5.47;;
60086;SDS011;45960;53.630;55.972;2022-09-17T03:42:07;7.60;;;5.55;;
60086;SDS011;45960;53.630;55.972;2022-09-17T03:43:08;7.18;;;5.90;;
60086;SDS011;45960;53.630;55.972;2022-09-17T03:44:09;6.50;;;5.80;;
60086;SDS011;45960;53.630;55.972;2022-09-17T03:45:10;5.90;;;4.80;;
60086;SDS011;45960;53.630;55.972;2022-09-17T03:46:11;5.78;;;5.18;;
60086;SDS011;45960;53.630;55.972;2022-09-17T03:47:12;10.25;;;5.60;;
60086;SDS011;45960;53.630;55.972;2022-09-17T03:48:16;5.93;;;5.32;;
60086;SDS011;45960;53.630;55.972;2022-09-17T03:49:17;5.40;;;4.90;;
60086;SDS011;45960;53.630;55.972;2022-09-17T03:50:18;9.23;;;5.25;;
60086;SDS011;45960;53.630;55.972;2022-09-17T03:51:19;8.73;;;4.55;;
60086;SDS011;45960;53.630;55.972;2022-09-17T03:52:20;6.50;;;4.90;;
60086;SDS011;45960;53.630;55.972;2022-09-17T03:53:21;5.53;;;4.68;;
60086;SDS011;45960;53.630;55.972;2022-09-17T03:54:23;7.43;;;4.50;;
60086;SDS011;45960;53.630;55.972;2022-09-17T03:55:25;5.30;;;4.43;;
60086;SDS011;45960;53.630;55.972;2022-09-17T03:56:26;4.80;;;4.30;;
60086;SDS011;45960;53.630;55.972;2022-09-17T03:57:27;5.15;;;4.57;;
60086;SDS011;45960;53.630;55.972;2022-09-17T03:58:28;5.68;;;4.40;;
60086;SDS011;45960;53.630;55.972;2022-09-17T03:59:30;7.28;;;4.75;;
60086;SDS011;45960;53.630;55.972;2022-09-17T04:00:32;6.18;;;4.53;;
60086;SDS011;45960;53.630;55.972;2022-09-17T04:01:33;6.43;;;4.53;;
60086;SDS011;45960;53.630;55.972;2022-09-17T04:02:35;6.45;;;4.65;;
60086;SDS011;45960;53.630;55.972;2022-09-17T04:03:37;7.97;;;4.53;;
60086;SDS011;45960;53.630;55.972;2022-09-17T04:04:38;9.95;;;4.55;;
60086;SDS011;45960;53.630;55.972;2022-09-17T04:05:39;6.57;;;4.25;;
60086;SDS011;45960;53.630;55.972;2022-09-17T04:06:40;9.30;;;4.40;;
60086;SDS011;45960;53.630;55.972;2022-09-17T04:07:41;5.57;;;3.88;;
60086;SDS011;45960;53.630;55.972;2022-09-17T04:08:42;8.70;;;4.32;;
60086;SDS011;45960;53.630;55.972;2022-09-17T04:09:43;5.78;;;4.20;;
60086;SDS011;45960;53.630;55.972;2022-09-17T04:10:44;5.80;;;4.22;;
60086;SDS011;45960;53.630;55.972;2022-09-17T04:11:46;4.65;;;3.70;;
60086;SDS011;45960;53.630;55.972;2022-09-17T04:12:47;4.10;;;3.53;;
60086;SDS011;45960;53.630;55.972;2022-09-17T04:13:49;4.53;;;3.53;;
60086;SDS011;45960;53.630;55.972;2022-09-17T04:14:50;5.15;;;3.72;;
60086;SDS011;45960;53.630;55.972;2022-09-17T04:15:51;5.82;;;4.00;;
60086;SDS011;45960;53.630;55.972;2022-09-17T04:16:52;4.38;;;3.55;;
60086;SDS011;45960;53.630;55.972;2022-09-17T04:17:56;7.07;;;3.75;;
60086;SDS011;45960;53.630;55.972;2022-09-17T04:18:57;7.25;;;3.33;;
60086;SDS011;45960;53.630;55.972;2022-09-17T04:19:58;3.95;;;3.03;;
60086;SDS011;45960;53.630;55.972;2022-09-17T04:20:59;3.88;;;3.25;;
60086;SDS011;45960;53.630;55.972;2022-09-17T04:22:00;4.43;;;3.45;;
60086;SDS011;45960;53.630;55.972;2022-09-17T04:23:01;4.32;;;3.70;;
60086;SDS011;45960;53.630;55.972;2022-09-17T04:24:03;4.30;;;3.28;;
60086;SDS011;45960;53.630;55.972;2022-09-17T04:25:04;3.53;;;3.17;;
60086;SDS011;45960;53.630;55.972;2022-09-17T04:26:05;4.57;;;3.60;;
60086;SDS011;45960;53.630;55.972;2022-09-17T04:27:07;3.92;;;3.20;;
60086;SDS011;45960;53.630;55.972;2022-09-17T04:28:08;4.13;;;3.08;;
60086;SDS011;45960;53.630;55.972;2022-09-17T04:29:09;3.45;;;2.78;;
60086;SDS011;45960;53.630;55.972;2022-09-17T04:30:10;4.68;;;3.08;;
60086;SDS011;45960;53.630;55.972;2022-09-17T04:31:12;5.78;;;3.15;;
60086;SDS011;45960;53.630;55.972;2022-09-17T04:32:13;3.03;;;2.20;;
60086;SDS011;45960;53.630;55.972;2022-09-17T04:33:14;6.43;;;2.90;;
60086;SDS011;45960;53.630;55.972;2022-09-17T04:34:15;3.50;;;2.60;;
60086;SDS011;45960;53.630;55.972;2022-09-17T04:35:16;3.65;;;2.67;;
60086;SDS011;45960;53.630;55.972;2022-09-17T04:36:17;4.97;;;2.72;;
60086;SDS011;45960;53.630;55.972;2022-09-17T04:37:19;3.00;;;2.50;;
60086;SDS011;45960;53.630;55.972;2022-09-17T04:38:20;3.65;;;2.25;;
60086;SDS011;45960;53.630;55.972;2022-09-17T04:39:21;2.88;;;2.15;;
60086;SDS011;45960;53.630;55.972;2022-09-17T04:40:23;3.83;;;1.95;;
60086;SDS011;45960;53.630;55.972;2022-09-17T04:41:26;2.53;;;2.15;;
60086;SDS011;45960;53.630;55.972;2022-09-17T04:42:28;4.25;;;2.20;;
60086;SDS011;45960;53.630;55.972;2022-09-17T04:43:29;2.67;;;2.10;;
60086;SDS011;45960;53.630;55.972;2022-09-17T04:44:30;3.90;;;2.10;;
60086;SDS011;45960;53.630;55.972;2022-09-17T04:45:31;4.22;;;2.25;;
60086;SDS011;45960;53.630;55.972;2022-09-17T04:46:34;2.90;;;1.95;;
60086;SDS011;45960;53.630;55.972;2022-09-17T04:47:38;2.53;;;1.70;;
60086;SDS011;45960;53.630;55.972;2022-09-17T04:48:40;3.20;;;1.65;;
60086;SDS011;45960;53.630;55.972;2022-09-17T04:49:41;2.45;;;1.75;;
60086;SDS011;45960;53.630;55.972;2022-09-17T04:50:42;2.13;;;1.70;;
60086;SDS011;45960;53.630;55.972;2022-09-17T04:51:43;3.05;;;1.63;;
60086;SDS011;45960;53.630;55.972;2022-09-17T04:52:45;1.65;;;1.40;;
60086;SDS011;45960;53.630;55.972;2022-09-17T04:53:46;2.08;;;1.60;;
60086;SDS011;45960;53.630;55.972;2022-09-17T04:54:48;2.03;;;1.50;;
60086;SDS011;45960;53.630;55.972;2022-09-17T04:55:49;3.97;;;1.50;;
60086;SDS011;45960;53.630;55.972;2022-09-17T04:56:50;2.42;;;1.35;;
60086;SDS011;45960;53.630;55.972;2022-09-17T04:57:51;2.30;;;1.40;;
60086;SDS011;45960;53.630;55.972;2022-09-17T04:58:53;1.75;;;1.30;;
60086;SDS011;45960;53.630;55.972;2022-09-17T04:59:54;2.20;;;1.30;;
60086;SDS011;45960;53.630;55.972;2022-09-17T05:00:55;1.52;;;1.20;;
60086;SDS011;45960;53.630;55.972;2022-09-17T05:01:56;2.22;;;1.50;;
60086;SDS011;45960;53.630;55.972;2022-09-17T05:02:57;2.03;;;1.10;;
60086;SDS011;45960;53.630;55.972;2022-09-17T05:03:58;1.30;;;1.10;;
60086;SDS011;45960;53.630;55.972;2022-09-17T05:05:00;2.58;;;1.25;;
60086;SDS011;45960;53.630;55.972;2022-09-17T05:06:01;2.78;;;1.17;;
60086;SDS011;45960;53.630;55.972;2022-09-17T05:07:02;2.65;;;1.13;;
60086;SDS011;45960;53.630;55.972;2022-09-17T05:08:03;1.38;;;1.05;;
60086;SDS011;45960;53.630;55.972;2022-09-17T05:09:04;3.55;;;1.20;;
60086;SDS011;45960;53.630;55.972;2022-09-17T05:10:06;1.67;;;1.10;;
60086;SDS011;45960;53.630;55.972;2022-09-17T05:11:08;2.10;;;1.10;;
60086;SDS011;45960;53.630;55.972;2022-09-17T05:12:09;3.28;;;1.50;;
60086;SDS011;45960;53.630;55.972;2022-09-17T05:13:10;2.20;;;1.08;;
60086;SDS011;45960;53.630;55.972;2022-09-17T05:14:11;1.55;;;1.10;;
60086;SDS011;45960;53.630;55.972;2022-09-17T05:15:13;3.88;;;1.10;;
60086;SDS011;45960;53.630;55.972;2022-09-17T05:16:14;1.40;;;1.08;;
60086;SDS011;45960;53.630;55.972;2022-09-17T05:17:15;1.98;;;1.27;;
60086;SDS011;45960;53.630;55.972;2022-09-17T05:18:16;5.57;;;1.17;;
60086;SDS011;45960;53.630;55.972;2022-09-17T05:19:17;1.70;;;1.40;;
60086;SDS011;45960;53.630;55.972;2022-09-17T05:20:19;2.22;;;1.20;;
60086;SDS011;45960;53.630;55.972;2022-09-17T05:21:20;1.23;;;0.90;;
60086;SDS011;45960;53.630;55.972;2022-09-17T05:22:21;5.03;;;0.95;;
60086;SDS011;45960;53.630;55.972;2022-09-17T05:23:22;2.80;;;0.82;;
60086;SDS011;45960;53.630;55.972;2022-09-17T05:24:23;4.50;;;1.35;;
60086;SDS011;45960;53.630;55.972;2022-09-17T05:25:24;1.52;;;1.10;;
60086;SDS011;45960;53.630;55.972;2022-09-17T05:26:25;1.23;;;0.90;;
60086;SDS011;45960;53.630;55.972;2022-09-17T05:27:26;2.08;;;1.05;;
60086;SDS011;45960;53.630;55.972;2022-09-17T05:28:27;6.53;;;1.17;;
60086;SDS011;45960;53.630;55.972;2022-09-17T05:29:29;1.80;;;1.20;;
60086;SDS011;45960;53.630;55.972;2022-09-17T05:30:30;1.73;;;1.20;;
60086;SDS011;45960;53.630;55.972;2022-09-17T05:31:31;2.08;;;1.40;;
60086;SDS011;45960;53.630;55.972;2022-09-17T05:32:33;1.60;;;1.10;;
60086;SDS011;45960;53.630;55.972;2022-09-17T05:33:35;4.50;;;1.40;;
60086;SDS011;45960;53.630;55.972;2022-09-17T05:34:36;1.23;;;0.98;;
60086;SDS011;45960;53.630;55.972;2022-09-17T05:35:37;1.27;;;1.00;;
60086;SDS011;45960;53.630;55.972;2022-09-17T05:36:38;5.32;;;1.10;;
60086;SDS011;45960;53.630;55.972;2022-09-17T05:37:39;2.78;;;1.30;;
60086;SDS011;45960;53.630;55.972;2022-09-17T05:38:40;1.73;;;1.10;;
60086;SDS011;45960;53.630;55.972;2022-09-17T05:39:41;4.40;;;1.40;;
60086;SDS011;45960;53.630;55.972;2022-09-17T05:40:42;1.95;;;1.55;;
60086;SDS011;45960;53.630;55.972;2022-09-17T05:41:44;3.80;;;1.23;;
60086;SDS011;45960;53.630;55.972;2022-09-17T05:42:44;2.17;;;1.58;;
60086;SDS011;45960;53.630;55.972;2022-09-17T05:43:46;2.80;;;1.50;;
60086;SDS011;45960;53.630;55.972;2022-09-17T05:44:47;4.22;;;1.70;;
60086;SDS011;45960;53.630;55.972;2022-09-17T05:45:48;2.83;;;1.80;;
60086;SDS011;45960;53.630;55.972;2022-09-17T05:46:51;4.05;;;2.08;;
60086;SDS011;45960;53.630;55.972;2022-09-17T05:47:53;2.53;;;1.77;;
60086;SDS011;45960;53.630;55.972;2022-09-17T05:48:58;2.58;;;2.00;;
60086;SDS011;45960;53.630;55.972;2022-09-17T05:49:59;2.80;;;2.10;;
60086;SDS011;45960;53.630;55.972;2022-09-17T05:51:00;2.50;;;2.30;;
60086;SDS011;45960;53.630;55.972;2022-09-17T05:52:01;3.33;;;2.47;;
60086;SDS011;45960;53.630;55.972;2022-09-17T05:53:06;3.55;;;2.92;;
60086;SDS011;45960;53.630;55.972;2022-09-17T05:54:10;4.47;;;3.00;;
60086;SDS011;45960;53.630;55.972;2022-09-17T05:55:11;4.35;;;3.15;;
60086;SDS011;45960;53.630;55.972;2022-09-17T05:56:12;3.95;;;2.95;;
60086;SDS011;45960;53.630;55.972;2022-09-17T05:57:13;3.22;;;2.80;;
60086;SDS011;45960;53.630;55.972;2022-09-17T05:58:16;6.57;;;3.20;;
60086;SDS011;45960;53.630;55.972;2022-09-17T05:59:18;3.85;;;3.05;;
60086;SDS011;45960;53.630;55.972;2022-09-17T06:00:19;3.33;;;2.83;;
60086;SDS011;45960;53.630;55.972;2022-09-17T06:01:21;4.45;;;2.17;;
60086;SDS011;45960;53.630;55.972;2022-09-17T06:02:22;3.45;;;2.03;;
60086;SDS011;45960;53.630;55.972;2022-09-17T06:03:23;2.83;;;2.30;;
60086;SDS011;45960;53.630;55.972;2022-09-17T06:04:24;2.03;;;1.65;;
60086;SDS011;45960;53.630;55.972;2022-09-17T06:05:26;2.17;;;1.88;;
60086;SDS011;45960;53.630;55.972;2022-09-17T06:06:27;3.40;;;2.22;;
60086;SDS011;45960;53.630;55.972;2022-09-17T06:07:30;3.10;;;2.15;;
60086;SDS011;45960;53.630;55.972;2022-09-17T06:08:32;2.13;;;1.92;;
60086;SDS011;45960;53.630;55.972;2022-09-17T06:09:36;2.97;;;2.10;;
60086;SDS011;45960;53.630;55.972;2022-09-17T06:10:37;3.55;;;2.20;;
60086;SDS011;45960;53.630;55.972;2022-09-17T06:11:39;2.97;;;2.50;;
60086;SDS011;45960;53.630;55.972;2022-09-17T06:12:40;4.25;;;2.40;;
60086;SDS011;45960;53.630;55.972;2022-09-17T06:13:41;3.00;;;2.33;;
60086;SDS011;45960;53.630;55.972;2022-09-17T06:14:43;3.10;;;2.40;;
60086;SDS011;45960;53.630;55.972;2022-09-17T06:15:51;4.65;;;3.03;;
60086;SDS011;45960;53.630;55.972;2022-09-17T06:16:54;4.43;;;3.30;;
60086;SDS011;45960;53.630;55.972;2022-09-17T06:17:55;5.10;;;3.53;;
60086;SDS011;45960;53.630;55.972;2022-09-17T06:18:56;6.20;;;4.70;;
60086;SDS011;45960;53.630;55.972;2022-09-17T06:19:57;5.07;;;4.50;;
60086;SDS011;45960;53.630;55.972;2022-09-17T06:20:59;5.95;;;5.20;;
60086;SDS011;45960;53.630;55.972;2022-09-17T06:22:02;7.82;;;6.35;;
60086;SDS011;45960;53.630;55.972;2022-09-17T06:23:05;12.60;;;6.70;;
60086;SDS011;45960;53.630;55.972;2022-09-17T06:24:07;9.23;;;6.82;;
60086;SDS011;45960;53.630;55.972;2022-09-17T06:25:09;12.50;;;8.13;;
60086;SDS011;45960;53.630;55.972;2022-09-17T06:26:11;8.93;;;7.80;;
60086;SDS011;45960;53.630;55.972;2022-09-17T06:27:12;10.65;;;7.13;;
60086;SDS011;45960;53.630;55.972;2022-09-17T06:28:14;12.07;;;8.15;;
60086;SDS011;45960;53.630;55.972;2022-09-17T06:29:15;11.85;;;8.77;;
60086;SDS011;45960;53.630;55.972;2022-09-17T06:30:16;13.38;;;9.55;;
60086;SDS011;45960;53.630;55.972;2022-09-17T06:31:17;11.57;;;9.18;;
60086;SDS011;45960;53.630;55.972;2022-09-17T06:32:18;14.88;;;10.10;;
60086;SDS011;45960;53.630;55.972;2022-09-17T06:33:20;14.18;;;10.68;;
60086;SDS011;45960;53.630;55.972;2022-09-17T06:34:21;13.35;;;10.00;;
60086;SDS011;45960;53.630;55.972;2022-09-17T06:35:22;13.20;;;10.38;;
60086;SDS011;45960;53.630;55.972;2022-09-17T06:36:23;14.15;;;10.57;;
60086;SDS011;45960;53.630;55.972;2022-09-17T06:37:28;15.23;;;12.10;;
60086;SDS011;45960;53.630;55.972;2022-09-17T06:38:31;17.45;;;12.60;;
60086;SDS011;45960;53.630;55.972;2022-09-17T06:39:34;15.52;;;12.38;;
60086;SDS011;45960;53.630;55.972;2022-09-17T06:40:34;15.40;;;12.00;;
60086;SDS011;45960;53.630;55.972;2022-09-17T06:41:36;15.68;;;12.23;;
60086;SDS011;45960;53.630;55.972;2022-09-17T06:42:38;17.15;;;12.75;;
60086;SDS011;45960;53.630;55.972;2022-09-17T06:43:39;18.08;;;12.20;;
60086;SDS011;45960;53.630;55.972;2022-09-17T06:44:40;17.25;;;12.75;;
60086;SDS011;45960;53.630;55.972;2022-09-17T06:45:41;15.23;;;12.07;;
60086;SDS011;45960;53.630;55.972;2022-09-17T06:46:42;15.48;;;12.70;;
60086;SDS011;45960;53.630;55.972;2022-09-17T06:47:43;16.80;;;12.18;;
60086;SDS011;45960;53.630;55.972;2022-09-17T06:48:45;14.63;;;12.25;;
60086;SDS011;45960;53.630;55.972;2022-09-17T06:49:45;17.75;;;11.95;;
60086;SDS011;45960;53.630;55.972;2022-09-17T06:50:46;15.77;;;12.10;;
60086;SDS011;45960;53.630;55.972;2022-09-17T06:51:48;17.77;;;12.63;;
60086;SDS011;45960;53.630;55.972;2022-09-17T06:52:51;15.43;;;11.77;;
60086;SDS011;45960;53.630;55.972;2022-09-17T06:53:53;14.82;;;11.38;;
60086;SDS011;45960;53.630;55.972;2022-09-17T06:54:55;15.93;;;11.85;;
60086;SDS011;45960;53.630;55.972;2022-09-17T06:55:57;15.30;;;12.30;;
60086;SDS011;45960;53.630;55.972;2022-09-17T06:56:59;15.07;;;11.10;;
60086;SDS011;45960;53.630;55.972;2022-09-17T06:58:01;15.90;;;12.38;;
60086;SDS011;45960;53.630;55.972;2022-09-17T06:59:02;16.38;;;12.75;;
60086;SDS011;45960;53.630;55.972;2022-09-17T07:00:03;15.75;;;13.10;;
60086;SDS011;45960;53.630;55.972;2022-09-17T07:01:04;17.45;;;12.45;;
60086;SDS011;45960;53.630;55.972;2022-09-17T07:02:05;17.58;;;13.32;;
60086;SDS011;45960;53.630;55.972;2022-09-17T07:03:08;15.43;;;13.05;;